createdAt,value
2018-11-23T00:02:06.752Z,2.61
2018-11-23T00:04:33.990Z,2.70
2018-11-23T00:07:01.197Z,2.73
2018-11-23T00:09:28.461Z,2.84
2018-11-23T00:11:55.808Z,2.84
2018-11-23T00:14:23.022Z,2.83
2018-11-23T00:16:50.254Z,2.80
2018-11-23T00:19:17.771Z,2.69
2018-11-23T00:21:44.914Z,2.57
2018-11-23T00:24:12.270Z,2.65
2018-11-23T00:26:39.418Z,2.62
2018-11-23T00:29:06.661Z,2.65
2018-11-23T00:31:33.952Z,2.56
2018-11-23T00:34:01.202Z,2.48
2018-11-23T00:36:28.595Z,2.45
2018-11-23T00:38:55.840Z,2.47
2018-11-23T00:41:23.212Z,2.45
2018-11-23T00:43:50.417Z,2.35
2018-11-23T00:46:18.460Z,2.41
2018-11-23T00:48:45.658Z,2.38
2018-11-23T00:51:12.885Z,2.39
2018-11-23T00:53:40.082Z,2.43
2018-11-23T00:56:07.496Z,2.45
2018-11-23T00:58:34.664Z,2.40
2018-11-23T01:01:01.819Z,2.34
2018-11-23T01:03:29.076Z,2.35
2018-11-23T01:05:56.225Z,2.29
2018-11-23T01:08:23.442Z,2.34
2018-11-23T01:10:50.700Z,2.28
2018-11-23T01:13:17.901Z,2.30
2018-11-23T01:15:45.146Z,2.24
2018-11-23T01:18:12.396Z,2.13
2018-11-23T01:20:39.602Z,2.01
2018-11-23T01:23:07.584Z,1.75
2018-11-23T01:25:34.778Z,1.65
2018-11-23T01:28:02.230Z,1.65
2018-11-23T01:30:30.638Z,1.72
2018-11-23T01:32:57.854Z,1.72
2018-11-23T01:35:25.026Z,1.79
2018-11-23T01:37:52.167Z,1.95
2018-11-23T01:40:22.343Z,2.11
2018-11-23T01:42:49.732Z,2.06
2018-11-23T01:45:16.995Z,2.09
2018-11-23T01:47:44.195Z,2.13
2018-11-23T01:50:15.641Z,2.04
2018-11-23T01:52:43.870Z,1.90
2018-11-23T01:55:12.328Z,1.67
2018-11-23T01:57:40.433Z,1.51
2018-11-23T02:00:10.998Z,1.50
2018-11-23T02:02:38.214Z,1.57
2018-11-23T02:05:05.862Z,1.31
2018-11-23T02:07:33.060Z,1.31
2018-11-23T02:10:00.324Z,1.56
2018-11-23T02:12:27.560Z,1.45
2018-11-23T02:14:54.774Z,1.50
2018-11-23T02:17:23.106Z,1.63
2018-11-23T02:19:51.824Z,1.68
2018-11-23T02:22:19.146Z,1.62
2018-11-23T02:24:46.440Z,1.64
2018-11-23T02:27:13.795Z,1.68
2018-11-23T02:29:40.990Z,1.76
2018-11-23T02:32:08.324Z,1.65
2018-11-23T02:34:35.660Z,1.52
2018-11-23T02:37:03.006Z,1.57
2018-11-23T02:39:30.374Z,1.73
2018-11-23T02:41:57.619Z,1.77
2018-11-23T02:44:24.790Z,1.70
2018-11-23T02:46:52.026Z,1.72
2018-11-23T02:49:19.276Z,1.68
2018-11-23T02:51:46.574Z,1.66
2018-11-23T02:54:13.781Z,1.63
2018-11-23T02:56:43.588Z,1.80
2018-11-23T02:59:12.118Z,1.74
2018-11-23T03:01:39.687Z,1.83
2018-11-23T03:04:07.652Z,1.77
2018-11-23T03:06:35.169Z,1.64
2018-11-23T03:09:02.670Z,1.62
2018-11-23T03:11:29.837Z,1.59
2018-11-23T03:13:57.042Z,1.69
2018-11-23T03:16:24.322Z,1.71
2018-11-23T03:18:52.147Z,1.56
2018-11-23T03:21:20.894Z,1.50
2018-11-23T03:23:52.123Z,1.35
2018-11-23T03:26:22.033Z,1.14
2018-11-23T03:28:50.027Z,1.00
2018-11-23T03:31:17.183Z,1.09
2018-11-23T03:33:44.458Z,1.16
2018-11-23T03:36:11.764Z,1.19
2018-11-23T03:38:47.147Z,1.28
2018-11-23T03:41:15.327Z,1.24
2018-11-23T03:43:42.799Z,1.15
2018-11-23T03:46:10.016Z,1.06
2018-11-23T03:48:38.058Z,1.05
2018-11-23T03:51:05.584Z,1.14
2018-11-23T03:53:32.787Z,1.23
2018-11-23T03:56:00.845Z,1.32
2018-11-23T03:58:28.045Z,1.18
2018-11-23T04:00:55.245Z,0.95
2018-11-23T04:03:22.467Z,1.07
2018-11-23T04:05:49.758Z,1.14
2018-11-23T04:08:16.998Z,1.20
2018-11-23T04:10:44.223Z,1.20
2018-11-23T04:13:11.427Z,1.14
2018-11-23T04:15:38.656Z,1.19
2018-11-23T04:18:05.907Z,1.25
2018-11-23T04:20:35.259Z,1.32
2018-11-23T04:23:02.460Z,1.36
2018-11-23T04:25:30.429Z,1.35
2018-11-23T04:27:57.596Z,1.32
2018-11-23T04:30:24.849Z,1.21
2018-11-23T04:32:52.797Z,1.22
2018-11-23T04:35:20.165Z,1.31
2018-11-23T04:37:47.867Z,1.27
2018-11-23T04:40:16.056Z,1.23
2018-11-23T04:42:43.518Z,1.20
2018-11-23T04:45:11.083Z,1.03
2018-11-23T04:47:40.538Z,0.96
2018-11-23T04:50:09.426Z,0.90
2018-11-23T04:52:36.744Z,1.03
2018-11-23T04:55:04.663Z,1.00
2018-11-23T04:57:31.968Z,1.02
2018-11-23T05:00:07.292Z,1.10
2018-11-23T05:02:34.954Z,1.15
2018-11-23T05:05:03.147Z,1.22
2018-11-23T05:07:31.340Z,1.32
2018-11-23T05:10:00.648Z,1.21
2018-11-23T05:12:27.960Z,1.19
2018-11-23T05:14:55.210Z,1.16
2018-11-23T05:17:22.400Z,1.01
2018-11-23T05:19:49.771Z,1.11
2018-11-23T05:22:17.010Z,1.30
2018-11-23T05:24:44.272Z,1.35
2018-11-23T05:27:11.539Z,1.27
2018-11-23T05:29:38.827Z,1.14
2018-11-23T05:32:05.993Z,1.04
2018-11-23T05:34:33.246Z,0.98
2018-11-23T05:37:00.504Z,1.13
2018-11-23T05:39:27.690Z,1.27
2018-11-23T05:41:54.885Z,0.12
2018-11-23T05:44:23.246Z,1.23
2018-11-23T05:46:50.572Z,1.17
2018-11-23T05:49:17.770Z,1.23
2018-11-23T05:51:44.941Z,1.15
2018-11-23T05:54:12.274Z,1.24
2018-11-23T05:56:39.469Z,1.14
2018-11-23T05:59:06.823Z,1.14
2018-11-23T06:01:34.039Z,1.02
2018-11-23T06:04:01.558Z,0.99
2018-11-23T06:06:28.782Z,0.92
2018-11-23T06:08:56.010Z,0.91
2018-11-23T06:11:23.290Z,1.01
2018-11-23T06:13:50.607Z,1.12
2018-11-23T06:16:17.972Z,1.22
2018-11-23T06:18:46.921Z,1.30
2018-11-23T06:21:14.301Z,1.38
2018-11-23T06:23:41.505Z,1.48
2018-11-23T06:26:13.506Z,1.49
2018-11-23T06:28:40.830Z,1.50
2018-11-23T06:31:08.066Z,1.49
2018-11-23T06:33:41.262Z,1.57
2018-11-23T06:36:08.553Z,1.58
2018-11-23T06:38:35.919Z,1.56
2018-11-23T06:41:10.045Z,1.58
2018-11-23T06:43:30.751Z,1.69
2018-11-23T06:45:59.138Z,1.60
2018-11-23T06:48:26.466Z,1.54
2018-11-23T06:50:55.063Z,1.45
2018-11-23T06:53:22.622Z,1.52
2018-11-23T06:55:50.658Z,1.42
2018-11-23T06:58:17.946Z,1.45
2018-11-23T07:00:45.306Z,1.60
2018-11-23T07:03:12.475Z,1.62
2018-11-23T07:05:40.093Z,1.69
2018-11-23T07:08:08.423Z,1.66
2018-11-23T07:10:35.677Z,1.59
2018-11-23T07:13:03.003Z,1.64
2018-11-23T07:15:32.470Z,1.68
2018-11-23T07:17:59.762Z,1.69
2018-11-23T07:20:28.959Z,1.64
2018-11-23T07:22:56.549Z,1.59
2018-11-23T07:25:23.802Z,1.62
2018-11-23T07:27:51.284Z,1.55
2018-11-23T07:30:22.980Z,1.54
2018-11-23T07:32:50.152Z,1.66
2018-11-23T07:35:17.825Z,1.64
2018-11-23T07:37:45.140Z,1.61
2018-11-23T07:40:25.838Z,1.53
2018-11-23T07:42:53.627Z,1.51
2018-11-23T07:45:21.138Z,1.43
2018-11-23T07:47:49.002Z,1.45
2018-11-23T07:50:16.241Z,1.41
2018-11-23T07:52:43.828Z,1.45
2018-11-23T07:55:11.984Z,1.45
2018-11-23T07:57:40.078Z,1.41
2018-11-23T08:00:14.171Z,1.57
2018-11-23T08:02:41.944Z,1.58
2018-11-23T08:05:10.947Z,1.57
2018-11-23T08:07:38.505Z,1.68
2018-11-23T08:10:08.522Z,1.75
2018-11-23T08:12:35.764Z,1.71
2018-11-23T08:15:03.034Z,1.78
2018-11-23T08:17:30.523Z,1.77
2018-11-23T08:19:57.924Z,1.80
2018-11-23T08:22:25.160Z,1.81
2018-11-23T08:24:55.150Z,1.87
2018-11-23T08:27:22.423Z,1.94
2018-11-23T08:29:49.657Z,2.00
2018-11-23T08:32:16.867Z,2.02
2018-11-23T08:34:44.104Z,2.19
2018-11-23T08:37:11.335Z,2.17
2018-11-23T08:39:38.625Z,2.22
2018-11-23T08:42:06.040Z,2.35
2018-11-23T08:44:33.335Z,2.42
2018-11-23T08:47:00.686Z,2.46
2018-11-23T08:49:27.902Z,2.61
2018-11-23T08:51:55.155Z,2.57
2018-11-23T08:54:22.448Z,2.56
2018-11-23T08:56:49.657Z,2.64
2018-11-23T08:59:16.851Z,2.63
2018-11-23T09:01:44.096Z,2.67
2018-11-23T09:04:11.335Z,2.73
2018-11-23T09:06:39.275Z,2.83
2018-11-23T09:09:08.877Z,2.95
2018-11-23T09:11:36.080Z,3.09
2018-11-23T09:14:04.464Z,3.20
2018-11-23T09:16:31.691Z,3.31
2018-11-23T09:18:59.236Z,3.33
2018-11-23T09:21:26.393Z,3.49
2018-11-23T09:23:54.022Z,3.43
2018-11-23T09:26:21.340Z,3.47
2018-11-23T09:28:48.547Z,3.53
2018-11-23T09:31:15.953Z,3.54
2018-11-23T09:33:43.311Z,2.58
2018-11-23T09:36:10.498Z,3.88
2018-11-23T09:38:37.741Z,4.02
2018-11-23T09:41:05.581Z,4.07
2018-11-23T09:43:32.819Z,4.16
2018-11-23T09:46:00.111Z,4.26
2018-11-23T09:48:27.337Z,4.38
2018-11-23T09:50:55.209Z,4.36
2018-11-23T09:53:23.652Z,4.39
2018-11-23T09:55:52.678Z,4.51
2018-11-23T09:58:20.101Z,4.67
2018-11-23T10:00:47.491Z,4.73
2018-11-23T10:03:14.824Z,4.81
2018-11-23T10:05:42.276Z,5.02
2018-11-23T10:08:09.539Z,5.03
2018-11-23T10:10:38.123Z,4.94
2018-11-23T10:13:05.806Z,5.09
2018-11-23T10:15:33.639Z,5.05
2018-11-23T10:18:02.689Z,5.09
2018-11-23T10:20:31.560Z,5.19
2018-11-23T10:22:58.998Z,5.27
2018-11-23T10:25:27.782Z,5.34
2018-11-23T10:27:55.196Z,5.38
2018-11-23T10:30:24.697Z,5.48
2018-11-23T10:32:53.402Z,5.57
2018-11-23T10:35:22.391Z,5.65
2018-11-23T10:37:51.211Z,5.72
2018-11-23T10:40:20.208Z,5.80
2018-11-23T10:42:47.843Z,5.96
2018-11-23T10:45:18.064Z,6.06
2018-11-23T10:47:45.873Z,6.18
2018-11-23T10:50:15.461Z,6.29
2018-11-23T10:52:43.039Z,6.40
2018-11-23T10:55:13.116Z,6.43
2018-11-23T10:57:40.691Z,6.52
2018-11-23T11:00:15.451Z,6.66
2018-11-23T11:02:43.345Z,6.80
2018-11-23T11:05:16.373Z,6.87
2018-11-23T11:07:43.962Z,6.88
2018-11-23T11:10:11.399Z,6.98
2018-11-23T11:12:38.964Z,7.06
2018-11-23T11:15:06.985Z,7.10
2018-11-23T11:17:34.279Z,7.18
2018-11-23T11:20:01.759Z,7.25
2018-11-23T11:22:29.387Z,7.20
2018-11-23T11:24:56.959Z,7.26
2018-11-23T11:27:24.699Z,7.33
2018-11-23T11:29:52.021Z,7.44
2018-11-23T11:32:19.301Z,7.50
2018-11-23T11:34:46.691Z,7.59
2018-11-23T11:37:13.931Z,7.65
2018-11-23T11:39:41.872Z,7.68
2018-11-23T11:42:09.583Z,7.66
2018-11-23T11:44:37.094Z,7.71
2018-11-23T11:47:05.127Z,7.58
2018-11-23T11:49:32.379Z,7.87
2018-11-23T11:51:59.595Z,7.91
2018-11-23T11:54:26.951Z,8.03
2018-11-23T11:56:54.261Z,8.16
2018-11-23T11:59:21.771Z,8.16
2018-11-23T12:01:49.230Z,8.24
2018-11-23T12:04:16.464Z,8.26
2018-11-23T12:06:44.442Z,8.35
2018-11-23T12:09:11.873Z,8.46
2018-11-23T12:11:39.638Z,8.62
2018-11-23T12:14:07.102Z,8.75
2018-11-23T12:16:34.378Z,8.82
2018-11-23T12:19:01.922Z,8.81
2018-11-23T12:21:29.176Z,8.90
2018-11-23T12:23:56.644Z,9.04
2018-11-23T12:26:24.606Z,9.21
2018-11-23T12:28:51.807Z,9.36
2018-11-23T12:31:18.992Z,9.21
2018-11-23T12:33:46.669Z,7.31
2018-11-23T12:36:14.019Z,9.18
2018-11-23T12:38:43.131Z,9.24
2018-11-23T12:41:09.432Z,9.43
2018-11-23T12:43:36.862Z,9.61
2018-11-23T12:46:04.263Z,9.64
2018-11-23T12:48:32.140Z,9.53
2018-11-23T12:50:59.588Z,9.43
2018-11-23T12:53:26.833Z,8.56
2018-11-23T12:55:54.072Z,9.73
2018-11-23T12:58:21.343Z,9.94
2018-11-23T13:00:48.761Z,9.98
2018-11-23T13:03:16.259Z,10.00
2018-11-23T13:05:43.878Z,9.99
2018-11-23T13:08:11.280Z,9.98
2018-11-23T13:10:38.537Z,10.08
2018-11-23T13:13:06.043Z,10.18
2018-11-23T13:15:33.552Z,10.29
2018-11-23T13:18:01.220Z,10.51
2018-11-23T13:20:28.619Z,10.52
2018-11-23T13:22:55.901Z,10.42
2018-11-23T13:25:25.219Z,10.49
2018-11-23T13:27:52.642Z,10.55
2018-11-23T13:30:25.559Z,10.57
2018-11-23T13:32:52.792Z,10.50
2018-11-23T13:35:20.371Z,10.40
2018-11-23T13:37:47.698Z,10.30
2018-11-23T13:40:16.272Z,10.18
2018-11-23T13:42:43.981Z,10.11
2018-11-23T13:45:12.667Z,9.89
2018-11-23T13:47:40.217Z,9.72
2018-11-23T13:50:09.522Z,9.53
2018-11-23T13:52:36.850Z,9.50
2018-11-23T13:55:04.864Z,9.37
2018-11-23T13:57:32.196Z,9.25
2018-11-23T13:59:59.674Z,9.11
2018-11-23T14:02:27.179Z,9.09
2018-11-23T14:04:54.692Z,9.03
2018-11-23T14:07:22.642Z,9.01
2018-11-23T14:09:50.127Z,8.96
2018-11-23T14:12:18.090Z,8.91
2018-11-23T14:14:45.320Z,8.83
2018-11-23T14:17:12.541Z,8.81
2018-11-23T14:19:39.789Z,8.70
2018-11-23T14:22:07.244Z,8.72
2018-11-23T14:24:34.560Z,8.64
2018-11-23T14:27:01.782Z,8.63
2018-11-23T14:29:29.135Z,8.57
2018-11-23T14:31:56.602Z,8.52
2018-11-23T14:34:23.971Z,8.49
2018-11-23T14:36:51.205Z,8.40
2018-11-23T14:39:18.568Z,8.38
2018-11-23T14:41:45.922Z,8.38
2018-11-23T14:44:13.303Z,8.30
2018-11-23T14:46:40.632Z,8.35
2018-11-23T14:49:07.899Z,8.34
2018-11-23T14:51:35.162Z,8.24
2018-11-23T14:54:02.384Z,8.24
2018-11-23T14:56:31.782Z,8.25
2018-11-23T14:58:58.996Z,8.12
2018-11-23T15:01:26.522Z,7.96
2018-11-23T15:03:53.880Z,7.98
2018-11-23T15:06:22.067Z,8.00
2018-11-23T15:08:50.183Z,8.00
2018-11-23T15:11:18.184Z,8.01
2018-11-23T15:13:47.047Z,8.00
2018-11-23T15:16:14.283Z,8.00
2018-11-23T15:18:41.920Z,7.96
2018-11-23T15:21:09.147Z,7.97
2018-11-23T15:23:36.772Z,7.92
2018-11-23T15:26:04.655Z,7.93
2018-11-23T15:28:32.072Z,7.94
2018-11-23T15:30:59.246Z,7.87
2018-11-23T15:33:26.513Z,7.86
2018-11-23T15:35:53.794Z,7.84
2018-11-23T15:38:22.264Z,7.82
2018-11-23T15:40:49.458Z,7.74
2018-11-23T15:43:17.761Z,7.69
2018-11-23T15:45:44.944Z,7.58
2018-11-23T15:48:12.324Z,7.55
2018-11-23T15:50:40.883Z,7.50
2018-11-23T15:53:09.859Z,7.50
2018-11-23T15:55:38.546Z,7.43
2018-11-23T15:58:07.622Z,7.37
2018-11-23T16:00:37.839Z,7.40
2018-11-23T16:03:06.962Z,7.38
2018-11-23T16:05:34.548Z,7.33
2018-11-23T16:08:03.261Z,7.24
2018-11-23T16:10:32.081Z,7.18
2018-11-23T16:13:00.475Z,7.22
2018-11-23T16:15:28.531Z,7.27
2018-11-23T16:17:56.395Z,7.24
2018-11-23T16:20:26.367Z,7.15
2018-11-23T16:22:56.136Z,7.15
2018-11-23T16:25:24.501Z,7.09
2018-11-23T16:27:54.073Z,7.01
2018-11-23T16:30:22.621Z,6.98
2018-11-23T16:32:51.444Z,6.93
2018-11-23T16:35:21.930Z,6.96
2018-11-23T16:37:50.098Z,6.99
2018-11-23T16:40:19.331Z,6.94
2018-11-23T16:42:47.051Z,7.08
2018-11-23T16:45:16.900Z,7.08
2018-11-23T16:47:44.671Z,6.98
2018-11-23T16:50:12.488Z,7.03
2018-11-23T16:52:40.554Z,6.92
2018-11-23T16:55:09.451Z,6.92
2018-11-23T16:57:37.082Z,6.88
2018-11-23T17:00:08.919Z,6.87
2018-11-23T17:02:36.501Z,6.81
2018-11-23T17:05:03.822Z,6.70
2018-11-23T17:07:31.134Z,6.68
2018-11-23T17:09:58.447Z,6.70
2018-11-23T17:12:26.240Z,6.68
2018-11-23T17:14:53.460Z,6.62
2018-11-23T17:17:22.454Z,6.60
2018-11-23T17:19:49.727Z,6.50
2018-11-23T17:22:16.897Z,6.47
2018-11-23T17:24:44.428Z,6.47
2018-11-23T17:27:11.810Z,6.45
2018-11-23T17:29:39.219Z,6.55
2018-11-23T17:32:06.494Z,6.56
2018-11-23T17:34:34.771Z,6.48
2018-11-23T17:37:02.269Z,6.53
2018-11-23T17:39:31.408Z,6.57
2018-11-23T17:41:58.913Z,6.59
2018-11-23T17:44:26.224Z,6.53
2018-11-23T17:46:53.461Z,6.54
2018-11-23T17:49:20.937Z,6.41
2018-11-23T17:51:48.134Z,6.29
2018-11-23T17:54:15.478Z,6.30
2018-11-23T17:56:42.763Z,6.29
2018-11-23T17:59:10.420Z,6.28
2018-11-23T18:01:37.689Z,6.26
2018-11-23T18:04:04.951Z,6.20
2018-11-23T18:06:32.954Z,6.15
2018-11-23T18:09:00.625Z,6.11
2018-11-23T18:11:28.100Z,6.17
2018-11-23T18:13:56.023Z,6.19
2018-11-23T18:16:23.280Z,6.22
2018-11-23T18:18:50.557Z,6.24
2018-11-23T18:21:17.822Z,6.27
2018-11-23T18:23:45.074Z,6.22
2018-11-23T18:26:12.307Z,6.22
2018-11-23T18:28:40.306Z,6.18
2018-11-23T18:31:07.600Z,6.11
2018-11-23T18:33:34.819Z,6.15
2018-11-23T18:36:02.244Z,6.18
2018-11-23T18:38:29.486Z,6.17
2018-11-23T18:40:56.665Z,6.18
2018-11-23T18:43:23.871Z,6.17
2018-11-23T18:45:51.107Z,6.01
2018-11-23T18:48:18.439Z,5.94
2018-11-23T18:50:45.686Z,5.94
2018-11-23T18:53:13.080Z,6.04
2018-11-23T18:55:40.287Z,6.04
2018-11-23T18:58:07.507Z,5.97
2018-11-23T19:00:35.046Z,5.81
2018-11-23T19:03:02.302Z,5.70
2018-11-23T19:05:29.665Z,5.74
2018-11-23T19:07:56.994Z,5.78
2018-11-23T19:10:24.277Z,3.75
2018-11-23T19:12:51.633Z,5.87
2018-11-23T19:15:25.117Z,5.89
2018-11-23T19:17:46.237Z,5.77
2018-11-23T19:20:21.216Z,5.69
2018-11-23T19:22:49.751Z,5.73
2018-11-23T19:25:17.058Z,5.66
2018-11-23T19:27:44.411Z,5.60
2018-11-23T19:30:13.368Z,5.50
2018-11-23T19:32:40.711Z,5.46
2018-11-23T19:35:10.110Z,5.44
2018-11-23T19:37:38.290Z,5.26
2018-11-23T19:40:16.082Z,5.00
2018-11-23T19:42:45.171Z,4.91
2018-11-23T19:45:14.308Z,4.82
2018-11-23T19:47:42.293Z,4.87
2018-11-23T19:50:15.406Z,4.99
2018-11-23T19:52:42.654Z,4.97
2018-11-23T19:55:11.269Z,4.91
2018-11-23T19:57:38.573Z,4.97
2018-11-23T20:00:15.617Z,5.00
2018-11-23T20:02:43.915Z,5.11
2018-11-23T20:05:11.619Z,5.07
2018-11-23T20:07:39.446Z,5.13
2018-11-23T20:10:15.707Z,5.10
2018-11-23T20:12:44.563Z,5.01
2018-11-23T20:15:14.721Z,4.98
2018-11-23T20:17:42.120Z,5.00
2018-11-23T20:20:10.713Z,5.11
2018-11-23T20:22:38.400Z,5.15
2018-11-23T20:25:10.410Z,5.17
2018-11-23T20:27:37.564Z,5.06
2018-11-23T20:30:09.053Z,5.08
2018-11-23T20:32:36.626Z,5.11
2018-11-23T20:35:05.252Z,5.11
2018-11-23T20:37:32.504Z,5.04
2018-11-23T20:40:00.009Z,4.96
2018-11-23T20:42:27.893Z,4.92
2018-11-23T20:44:55.348Z,5.04
2018-11-23T20:47:22.979Z,5.14
2018-11-23T20:49:50.920Z,5.19
2018-11-23T20:52:18.495Z,5.21
2018-11-23T20:54:46.204Z,5.09
2018-11-23T20:57:13.908Z,5.02
2018-11-23T20:59:41.642Z,4.96
2018-11-23T21:02:09.192Z,5.11
2018-11-23T21:04:36.765Z,5.20
2018-11-23T21:07:04.832Z,5.16
2018-11-23T21:09:32.527Z,5.13
2018-11-23T21:12:00.249Z,5.06
2018-11-23T21:14:27.823Z,4.96
2018-11-23T21:16:55.484Z,4.93
2018-11-23T21:19:23.041Z,4.96
2018-11-23T21:21:50.681Z,5.01
2018-11-23T21:24:18.272Z,5.01
2018-11-23T21:26:46.740Z,5.02
2018-11-23T21:29:14.698Z,4.80
2018-11-23T21:31:42.376Z,4.91
2018-11-23T21:34:12.962Z,4.99
2018-11-23T21:36:40.577Z,5.06
2018-11-23T21:39:13.728Z,5.19
2018-11-23T21:41:37.442Z,5.24
2018-11-23T21:44:04.965Z,5.21
2018-11-23T21:46:32.192Z,5.18
2018-11-23T21:48:59.507Z,5.08
2018-11-23T21:51:26.803Z,5.14
2018-11-23T21:53:54.289Z,5.00
2018-11-23T21:56:21.524Z,4.99
2018-11-23T21:58:48.899Z,5.03
2018-11-23T22:01:16.164Z,4.82
2018-11-23T22:03:43.338Z,4.90
2018-11-23T22:06:10.582Z,4.89
2018-11-23T22:08:37.759Z,5.02
2018-11-23T22:11:05.329Z,4.85
2018-11-23T22:13:32.587Z,4.97
2018-11-23T22:15:59.839Z,4.97
2018-11-23T22:18:27.092Z,5.02
2018-11-23T22:20:54.289Z,5.12
2018-11-23T22:23:21.592Z,5.11
2018-11-23T22:25:48.874Z,5.15
2018-11-23T22:28:16.134Z,5.21
2018-11-23T22:30:43.688Z,5.07
2018-11-23T22:33:11.994Z,5.08
2018-11-23T22:35:39.325Z,5.15
2018-11-23T22:38:07.011Z,5.04
2018-11-23T22:40:34.342Z,5.03
2018-11-23T22:43:01.565Z,5.09
2018-11-23T22:45:28.762Z,5.07
2018-11-23T22:47:55.966Z,5.17
2018-11-23T22:50:24.490Z,5.26
2018-11-23T22:52:51.726Z,5.29
2018-11-23T22:55:19.858Z,5.30
2018-11-23T22:57:47.059Z,5.26
2018-11-23T23:00:23.387Z,5.16
2018-11-23T23:02:51.246Z,5.10
2018-11-23T23:05:19.543Z,5.14
2018-11-23T23:07:46.738Z,5.13
2018-11-23T23:10:13.969Z,5.26
2018-11-23T23:12:41.225Z,5.28
2018-11-23T23:15:09.972Z,5.26
2018-11-23T23:17:37.790Z,5.22
2018-11-23T23:20:07.936Z,5.32
2018-11-23T23:22:35.239Z,5.35
2018-11-23T23:25:02.472Z,5.18
2018-11-23T23:27:29.714Z,5.16
2018-11-23T23:29:57.082Z,5.25
2018-11-23T23:32:26.228Z,5.30
2018-11-23T23:34:53.657Z,5.38
2018-11-23T23:37:21.176Z,5.34
2018-11-23T23:39:48.415Z,5.32
2018-11-23T23:42:15.809Z,5.27
2018-11-23T23:44:43.128Z,5.22
2018-11-23T23:47:10.807Z,5.23
2018-11-23T23:49:41.559Z,5.24
2018-11-23T23:52:09.057Z,5.33
2018-11-23T23:54:36.391Z,5.41
2018-11-23T23:57:03.585Z,5.20
2018-11-23T23:59:30.977Z,5.35
